Terminal Aerodrome Forecast
Issued by NWS Quad Cities IA IL

Home | Current Version | Previous Version | Text Only | Print | Product List | Glossary On
Versions: 1 2 3 4 5 6 7 8 9 10 11 12 13 14 15 16 17 18 19 20 21 22 23 24
790
FTUS43 KDVN 081730
TAFDBQ
TAF
KDBQ 081730Z 0818/0918 24010KT P6SM FEW050
     FM090000 23011KT P6SM BKN080
     FM090400 26012KT 6SM -SN BKN025
      TEMPO 0904/0907 4SM -SN BR OVC015
     FM090800 32015G25KT P6SM BKN025
     FM091200 34018G28KT P6SM BKN050=

USA.gov is the U.S. government's official web portal to all federal, state and local government web resources and services.